Time;durP1;ratioP1;P1;durP2;ratioP2;P2;SDS_P1;SDS_P2;PMS_P1;PMS_P2;Temp;Humidity;BMP_temperature;BMP_pressure;BME280_temperature;BME280_humidity;BME280_pressure;Samples;Min_cycle;Max_cycle;Signal;HPM_P1;HPM_P2
2023/10/11 00:01:03;;;;;;;21.70;12.60;;;;;;;2.63;66.25;102236.46;107563;1254;107768;-62
2023/10/11 00:03:45;;;;;;;21.20;11.90;;;;;;;2.64;66.38;102231.47;107577;1257;100293;-63
2023/10/11 00:06:15;;;;;;;19.00;10.80;;;;;;;2.64;66.49;102232.14;107638;1254;99825;-62
2023/10/11 00:08:44;;;;;;;18.50;11.10;;;;;;;2.65;66.56;102228.77;107618;1254;113074;-63
2023/10/11 00:11:23;;;;;;;23.30;11.30;;;;;;;2.68;66.91;102227.08;107589;1254;109913;-64
2023/10/11 00:13:54;;;;;;;17.80;11.00;;;;;;;2.70;67.12;102225.77;107580;1254;107356;-66
2023/10/11 00:16:22;;;;;;;22.50;11.30;;;;;;;2.68;67.39;102221.23;107544;1254;99102;-63
2023/10/11 00:18:52;;;;;;;28.40;12.30;;;;;;;2.67;67.80;102221.27;107460;1254;99153;-63
2023/10/11 00:21:35;;;;;;;20.40;11.40;;;;;;;2.68;67.50;102224.60;107611;1254;113295;-62
2023/10/11 00:24:04;;;;;;;17.80;10.10;;;;;;;2.65;67.66;102224.52;107565;1254;108973;-63
2023/10/11 00:26:40;;;;;;;19.80;10.50;;;;;;;2.63;67.73;102222.27;107607;1257;108129;-63
2023/10/11 00:29:09;;;;;;;20.10;9.60;;;;;;;2.63;68.11;102222.11;107594;1254;99185;-62
2023/10/11 00:31:38;;;;;;;21.40;11.40;;;;;;;2.63;68.10;102219.63;107677;1251;99077;-62
2023/10/11 00:34:12;;;;;;;20.20;10.80;;;;;;;2.63;67.89;102221.93;107558;1253;114137;-63
2023/10/11 00:36:45;;;;;;;18.30;10.70;;;;;;;2.64;67.86;102223.29;107532;1251;109643;-63
2023/10/11 00:39:18;;;;;;;23.60;11.20;;;;;;;2.67;67.91;102221.98;107564;1251;107671;-63
2023/10/11 00:41:49;;;;;;;18.90;10.80;;;;;;;2.70;67.62;102223.11;107539;1255;99185;-62
2023/10/11 00:44:20;;;;;;;19.20;10.80;;;;;;;2.72;67.67;102222.89;107522;1251;99292;-63
2023/10/11 00:47:00;;;;;;;21.20;10.60;;;;;;;2.72;67.33;102218.64;107626;1254;113289;-63
2023/10/11 00:49:36;;;;;;;23.20;11.30;;;;;;;2.75;67.73;102217.13;107579;1254;109947;-62
2023/10/11 00:52:09;;;;;;;19.20;10.60;;;;;;;2.77;67.54;102215.44;107578;1251;108301;-62
2023/10/11 00:54:38;;;;;;;21.70;11.00;;;;;;;2.76;67.51;102213.88;107543;1254;99221;-62
2023/10/11 00:57:06;;;;;;;23.70;10.40;;;;;;;2.79;67.69;102215.20;107579;1257;99294;-62
2023/10/11 00:59:36;;;;;;;19.50;11.20;;;;;;;2.81;67.41;102217.98;107579;1251;113167;-62
2023/10/11 01:02:06;;;;;;;16.80;11.30;;;;;;;2.82;67.73;102217.05;107601;1252;107763;-63
2023/10/11 01:04:38;;;;;;;21.30;11.30;;;;;;;2.82;67.66;102219.70;107628;1253;107334;-62
2023/10/11 01:07:08;;;;;;;19.40;12.40;;;;;;;2.81;67.20;102228.07;107575;1256;99189;-64
2023/10/11 01:09:37;;;;;;;29.40;12.20;;;;;;;2.80;67.27;102229.17;107628;1251;99188;-62
2023/10/11 01:12:06;;;;;;;23.60;11.90;;;;;;;2.76;67.20;102228.05;107614;1254;112463;-63
2023/10/11 01:14:45;;;;;;;26.20;12.10;;;;;;;2.71;66.63;102229.81;107621;1251;108683;-62
2023/10/11 01:17:13;;;;;;;24.80;11.20;;;;;;;2.65;66.53;102231.59;107557;1251;107619;-63
2023/10/11 01:19:42;;;;;;;23.80;12.00;;;;;;;2.61;66.78;102232.60;107598;1251;99185;-62
2023/10/11 01:22:10;;;;;;;26.10;11.70;;;;;;;2.56;66.85;102237.02;107611;1251;99918;-62
2023/10/11 01:24:41;;;;;;;22.80;13.10;;;;;;;2.52;66.57;102239.27;107516;1251;113208;-62
2023/10/11 01:27:13;;;;;;;24.40;12.10;;;;;;;2.47;66.57;102239.95;107597;1251;110135;-62
2023/10/11 01:29:42;;;;;;;18.50;11.30;;;;;;;2.41;66.70;102243.33;107597;1251;107030;-62
2023/10/11 01:32:10;;;;;;;22.70;12.00;;;;;;;2.36;66.47;102249.48;107470;1251;99233;-65
2023/10/11 01:34:38;;;;;;;19.10;11.90;;;;;;;2.31;66.27;102251.44;107556;1251;99333;-63
2023/10/11 01:37:07;;;;;;;28.70;12.90;;;;;;;2.24;66.37;102251.10;107631;1251;113356;-63
2023/10/11 01:39:35;;;;;;;24.70;12.30;;;;;;;2.17;66.24;102250.77;107620;1251;109675;-62
2023/10/11 01:42:04;;;;;;;22.90;13.20;;;;;;;2.12;66.28;102249.49;107567;1254;107151;-63
2023/10/11 01:44:34;;;;;;;24.50;12.60;;;;;;;2.07;66.49;102256.20;107558;1252;99730;-62
2023/10/11 01:47:03;;;;;;;22.20;11.80;;;;;;;2.02;66.50;102266.58;107420;1254;100980;-62
2023/10/11 01:49:39;;;;;;;27.80;12.70;;;;;;;2.00;66.76;102269.32;107409;1254;112852;-63
2023/10/11 01:52:07;;;;;;;26.90;11.70;;;;;;;1.97;66.72;102269.40;107431;1254;109973;-62
2023/10/11 01:54:36;;;;;;;24.80;12.90;;;;;;;1.93;66.69;102270.23;107375;1254;108562;-64
2023/10/11 01:57:05;;;;;;;23.60;12.50;;;;;;;1.89;66.98;102271.55;107501;1254;99173;-62
2023/10/11 01:59:33;;;;;;;28.10;12.30;;;;;;;1.84;66.77;102272.05;107477;1254;99324;-62
2023/10/11 02:02:03;;;;;;;24.50;12.70;;;;;;;1.81;66.78;102271.43;107461;1254;112535;-63
2023/10/11 02:04:32;;;;;;;20.30;12.50;;;;;;;1.79;66.78;102277.50;107429;1254;109858;-63
2023/10/11 02:07:00;;;;;;;22.30;12.60;;;;;;;1.75;66.94;102278.15;107474;1254;107911;-62
2023/10/11 02:09:28;;;;;;;24.50;13.30;;;;;;;1.75;67.16;102283.98;107592;1254;99176;-63
2023/10/11 02:11:58;;;;;;;18.70;11.40;;;;;;;1.75;67.28;102282.56;107652;1254;99794;-62
2023/10/11 02:14:28;;;;;;;20.40;11.20;;;;;;;1.75;67.39;102279.73;107608;1254;112352;-62
2023/10/11 02:16:57;;;;;;;19.40;11.40;;;;;;;1.76;67.81;102281.65;107443;1258;108307;-62
2023/10/11 02:19:26;;;;;;;23.90;12.60;;;;;;;1.76;67.82;102277.21;107558;1256;108589;-62
2023/10/11 02:21:54;;;;;;;28.10;11.80;;;;;;;1.78;68.15;102277.34;107564;1256;99260;-63
2023/10/11 02:24:26;;;;;;;19.30;10.70;;;;;;;1.81;68.36;102278.86;107609;1254;99099;-63
2023/10/11 02:26:56;;;;;;;19.40;10.90;;;;;;;1.85;68.71;102277.14;107606;1254;111962;-62
2023/10/11 02:29:28;;;;;;;22.10;11.10;;;;;;;1.90;68.60;102280.04;107594;1254;109948;-63
2023/10/11 02:31:58;;;;;;;20.00;10.80;;;;;;;1.93;68.67;102282.78;107494;1254;107300;-62
2023/10/11 02:34:27;;;;;;;18.80;11.20;;;;;;;1.97;68.69;102284.80;107535;1251;99068;-61
2023/10/11 02:37:01;;;;;;;21.10;10.60;;;;;;;2.00;68.38;102286.66;107501;1254;99176;-63
2023/10/11 02:39:32;;;;;;;20.30;10.90;;;;;;;2.02;68.26;102285.70;107578;1254;113033;-63
2023/10/11 02:42:05;;;;;;;18.20;10.20;;;;;;;2.05;68.65;102286.49;107653;1251;108270;-62
2023/10/11 02:44:39;;;;;;;19.50;11.30;;;;;;;2.10;68.46;102285.67;107598;1254;108584;-63
2023/10/11 02:47:09;;;;;;;21.00;12.20;;;;;;;2.13;68.41;102285.91;107528;1252;99243;-62
2023/10/11 02:49:39;;;;;;;16.40;10.90;;;;;;;2.16;68.25;102293.80;107589;1251;99114;-63
2023/10/11 02:52:08;;;;;;;22.50;11.10;;;;;;;2.18;68.40;102299.59;107642;1251;111673;-63
2023/10/11 02:54:40;;;;;;;20.30;10.70;;;;;;;2.21;68.02;102302.34;107619;1254;109232;-63
2023/10/11 02:57:18;;;;;;;28.00;11.30;;;;;;;2.22;68.13;102297.36;107587;1251;107415;-62
2023/10/11 02:59:50;;;;;;;28.80;10.50;;;;;;;2.21;67.80;102306.95;107552;1251;99198;-62
2023/10/11 03:02:22;;;;;;;27.90;12.60;;;;;;;2.19;67.83;102308.41;107691;1251;99787;-63
2023/10/11 03:04:52;;;;;;;26.40;12.40;;;;;;;2.14;67.42;102312.97;107417;1254;111867;-63
2023/10/11 03:07:21;;;;;;;28.10;11.90;;;;;;;2.08;67.09;102314.75;107546;1254;109505;-63
2023/10/11 03:09:54;;;;;;;21.90;11.40;;;;;;;2.00;66.94;102322.39;107558;1251;108474;-64
2023/10/11 03:12:38;;;;;;;22.10;12.90;;;;;;;1.91;66.97;102321.04;107548;1251;99178;-64
2023/10/11 03:15:09;;;;;;;25.20;11.70;;;;;;;1.81;67.02;102319.90;107657;1251;99244;-63
2023/10/11 03:17:41;;;;;;;18.70;12.50;;;;;;;1.72;66.94;102319.27;107645;1251;113739;-65
2023/10/11 03:20:28;;;;;;;24.50;12.00;;;;;;;1.65;66.76;102316.08;107663;1256;109656;-64
2023/10/11 03:23:03;;;;;;;24.20;12.60;;;;;;;1.60;66.88;102313.55;107562;1251;107407;-63
2023/10/11 03:25:33;;;;;;;23.10;12.00;;;;;;;1.56;66.92;102309.41;107597;1251;99275;-63
2023/10/11 03:28:02;;;;;;;21.40;12.00;;;;;;;1.50;66.61;102304.80;107582;1251;99079;-63
2023/10/11 03:30:35;;;;;;;26.50;13.60;;;;;;;1.46;66.78;102300.30;107639;1251;113258;-63
2023/10/11 03:33:06;;;;;;;34.90;15.00;;;;;;;1.41;66.64;102299.19;107610;1251;109558;-63
2023/10/11 03:35:38;;;;;;;30.30;15.40;;;;;;;1.38;66.82;102304.94;107617;1251;106290;-64
2023/10/11 03:38:17;;;;;;;39.80;18.80;;;;;;;1.36;66.95;102304.42;107630;1256;100019;-62
2023/10/11 03:40:54;;;;;;;33.40;15.50;;;;;;;1.33;66.70;102301.69;107610;1251;99294;-62
2023/10/11 03:43:26;;;;;;;34.40;16.50;;;;;;;1.30;66.84;102303.17;107667;1254;113707;-62
2023/10/11 03:45:59;;;;;;;38.30;16.80;;;;;;;1.25;66.99;102297.29;107634;1251;110948;-62
2023/10/11 03:48:28;;;;;;;27.90;14.30;;;;;;;1.19;67.00;102304.85;107645;1254;107412;-64
2023/10/11 03:50:57;;;;;;;21.90;12.60;;;;;;;1.15;67.13;102316.61;107564;1251;99278;-63
2023/10/11 03:53:25;;;;;;;28.80;12.80;;;;;;;1.10;66.96;102321.50;107661;1253;99071;-62
2023/10/11 03:55:54;;;;;;;25.90;13.00;;;;;;;1.06;67.00;102321.96;107588;1253;111876;-62
2023/10/11 03:58:29;;;;;;;29.30;14.60;;;;;;;1.02;66.87;102316.41;107610;1251;109809;-63
2023/10/11 04:01:46;;;;;;;38.00;13.40;;;;;;;1.00;67.16;102314.69;107582;1251;108399;-62
2023/10/11 04:03:56;;;;;;;25.90;13.00;;;;;;;0.97;67.02;102308.93;107542;1251;99166;-64
2023/10/11 04:06:25;;;;;;;30.80;14.20;;;;;;;0.98;66.99;102309.44;107640;1256;99105;-63
2023/10/11 04:09:00;;;;;;;31.70;14.20;;;;;;;0.99;67.54;102311.88;107574;1254;113239;-64
2023/10/11 04:11:54;;;;;;;30.80;14.30;;;;;;;1.02;67.51;102311.81;107600;1254;108620;-63
2023/10/11 04:14:25;;;;;;;26.70;13.30;;;;;;;1.06;67.91;102308.52;107621;1251;108075;-64
2023/10/11 04:16:55;;;;;;;21.30;12.30;;;;;;;1.09;67.73;102309.34;107591;1256;99800;-64
2023/10/11 04:19:24;;;;;;;26.10;11.90;;;;;;;1.13;68.03;102312.25;107625;1253;99215;-64
2023/10/11 04:21:57;;;;;;;21.40;11.20;;;;;;;1.18;68.29;102309.13;107621;1253;113151;-64
2023/10/11 04:24:26;;;;;;;36.80;11.00;;;;;;;1.19;68.29;102305.39;107646;1254;107730;-63
2023/10/11 04:26:58;;;;;;;27.50;12.40;;;;;;;1.22;68.09;102308.83;107613;1251;109552;-62
2023/10/11 04:29:31;;;;;;;24.10;10.00;;;;;;;1.27;68.18;102312.09;107602;1254;99253;-63
2023/10/11 04:34:33;;;;;;;23.70;11.20;;;;;;;1.36;68.24;102322.65;107607;1251;112717;-63
2023/10/11 04:37:06;;;;;;;22.00;10.60;;;;;;;1.40;68.16;102326.09;107579;1251;109448;-63
2023/10/11 04:39:43;;;;;;;22.40;10.60;;;;;;;1.44;68.32;102327.58;107634;1251;107766;-63
2023/10/11 04:42:12;;;;;;;29.80;10.70;;;;;;;1.48;67.95;102335.60;107602;1251;99167;-64
2023/10/11 04:44:42;;;;;;;21.50;11.10;;;;;;;1.52;67.98;102340.63;107621;1251;99128;-64
2023/10/11 04:47:12;;;;;;;27.50;10.80;;;;;;;1.55;67.92;102341.79;107652;1251;113112;-64
2023/10/11 04:49:43;;;;;;;29.60;11.90;;;;;;;1.59;67.87;102340.10;107630;1251;109705;-65
2023/10/11 04:52:22;;;;;;;29.00;14.00;;;;;;;1.59;67.73;102339.39;107520;1254;108075;-63
2023/10/11 04:54:55;;;;;;;39.80;17.10;;;;;;;1.63;67.56;102345.84;107547;1253;99221;-63
2023/10/11 04:57:39;;;;;;;37.50;18.30;;;;;;;1.67;67.53;102351.95;107650;1251;99727;-63
2023/10/11 05:00:11;;;;;;;26.70;16.40;;;;;;;1.70;67.57;102351.31;107625;1251;112671;-65
2023/10/11 05:02:39;;;;;;;33.20;15.50;;;;;;;1.71;67.35;102349.87;107648;1251;108763;-63
2023/10/11 05:05:18;;;;;;;36.80;16.20;;;;;;;1.67;67.25;102353.16;107578;1251;108613;-64
2023/10/11 05:07:46;;;;;;;24.20;13.80;;;;;;;1.68;67.41;102350.30;107624;1251;99195;-64
2023/10/11 05:13:12;;;;;;;34.20;15.20;;;;;;;1.69;67.30;102359.84;107593;1251;113695;-64
2023/10/11 05:15:47;;;;;;;87.60;18.20;;;;;;;1.67;67.11;102357.58;107540;1251;109091;-64
2023/10/11 05:18:18;;;;;;;35.00;14.80;;;;;;;1.66;66.75;102357.27;107640;1253;108245;-65
2023/10/11 05:20:57;;;;;;;35.60;15.30;;;;;;;1.74;66.95;102357.42;107626;1251;99146;-64
2023/10/11 05:23:52;;;;;;;38.30;14.10;;;;;;;1.82;66.93;102357.55;107593;1251;99146;-64
2023/10/11 05:26:47;;;;;;;25.00;12.30;;;;;;;1.90;66.95;102359.81;107615;1256;113387;-65
2023/10/11 05:29:31;;;;;;;27.10;12.10;;;;;;;2.03;66.89;102356.45;107490;1253;108639;-64
2023/10/11 05:51:45;;;;;;;28.20;13.40;;;;;;;2.12;66.89;102373.92;107602;1251;99317;-64
2023/10/11 05:54:15;;;;;;;24.70;12.50;;;;;;;2.15;66.84;102374.20;107601;1251;112892;-64
2023/10/11 05:56:49;;;;;;;24.00;11.50;;;;;;;2.20;67.06;102377.44;107547;1254;109295;-65
2023/10/11 05:59:18;;;;;;;27.40;11.60;;;;;;;2.24;67.34;102380.68;107556;1254;107732;-65
2023/10/11 06:01:48;;;;;;;26.00;11.30;;;;;;;2.27;67.37;102381.14;107564;1254;99169;-64
2023/10/11 06:04:16;;;;;;;25.90;11.70;;;;;;;2.31;67.40;102380.14;107656;1251;99691;-63
2023/10/11 06:06:52;;;;;;;25.40;13.30;;;;;;;2.35;67.80;102385.86;107605;1255;113036;-63
2023/10/11 06:09:26;;;;;;;24.90;13.40;;;;;;;2.40;67.63;102392.48;107628;1251;109711;-64
2023/10/11 06:11:57;;;;;;;28.10;14.30;;;;;;;2.47;67.53;102392.95;107582;1253;107648;-64
2023/10/11 06:14:26;;;;;;;35.70;13.60;;;;;;;2.56;67.65;102387.73;107611;1253;99189;-64
2023/10/11 06:16:58;;;;;;;34.10;15.80;;;;;;;2.66;67.94;102388.71;107608;1254;99754;-68
2023/10/11 06:19:27;;;;;;;36.30;13.10;;;;;;;2.77;68.09;102390.67;107621;1255;113561;-64
2023/10/11 06:21:56;;;;;;;27.30;12.30;;;;;;;2.91;68.53;102384.61;107631;1252;108688;-64
2023/10/11 06:24:30;;;;;;;21.50;10.30;;;;;;;3.05;69.02;102385.23;107606;1254;107731;-64
2023/10/11 06:29:53;;;;;;;24.50;10.60;;;;;;;3.42;70.29;102386.38;107632;1254;99201;-64
2023/10/11 06:32:23;;;;;;;17.10;9.40;;;;;;;3.60;70.04;102388.09;107585;1253;113443;-63
2023/10/11 06:34:52;;;;;;;22.10;9.90;;;;;;;3.73;69.97;102388.18;107570;1254;109038;-64
2023/10/11 06:37:26;;;;;;;20.20;9.10;;;;;;;3.86;69.80;102386.69;107570;1253;106214;-65
2023/10/11 06:42:23;;;;;;;28.60;13.10;;;;;;;4.06;69.50;102382.64;107565;1253;99732;-65
2023/10/11 06:45:01;;;;;;;27.70;11.50;;;;;;;4.16;69.62;102378.71;107577;1253;113893;-64
2023/10/11 06:47:34;;;;;;;36.80;11.90;;;;;;;4.30;69.31;102383.37;107642;1255;109707;-65
2023/10/11 06:50:10;;;;;;;20.50;10.40;;;;;;;4.42;69.41;102390.73;107602;1253;109514;-64
2023/10/11 06:52:44;;;;;;;32.80;12.50;;;;;;;4.52;69.14;102392.86;107591;1254;99047;-64
2023/10/11 06:55:16;;;;;;;;;;;;;;;4.65;69.11;102390.44;107632;1253;99193;-65
2023/10/11 06:57:50;;;;;;;31.70;13.20;;;;;;;4.80;69.15;102388.10;107572;1254;113705;-65
2023/10/11 07:00:28;;;;;;;35.60;14.50;;;;;;;4.94;68.99;102387.00;107586;1253;109788;-65
2023/10/11 07:05:46;;;;;;;39.40;15.10;;;;;;;5.22;69.02;102390.93;107638;1253;99162;-65
2023/10/11 07:08:20;;;;;;;30.30;13.60;;;;;;;5.35;68.75;102390.41;107601;1254;99067;-64
2023/10/11 07:13:54;;;;;;;27.10;13.10;;;;;;;5.57;68.14;102390.02;107559;1254;109804;-63
2023/10/11 07:16:28;;;;;;;28.80;13.10;;;;;;;5.70;68.16;102388.98;107574;1251;108173;-63
2023/10/11 07:18:58;;;;;;;29.10;11.50;;;;;;;5.82;68.01;102388.45;107649;1251;99243;-65
2023/10/11 07:21:48;;;;;;;21.30;11.60;;;;;;;5.94;67.72;102389.17;107571;1253;99189;-64
2023/10/11 07:24:34;;;;;;;20.60;10.50;;;;;;;6.07;67.32;102382.77;107597;1253;113302;-64
2023/10/11 07:27:26;;;;;;;24.50;11.10;;;;;;;6.21;66.96;102380.38;107631;1252;108768;-66
2023/10/11 07:29:56;;;;;;;22.30;10.90;;;;;;;6.39;66.41;102373.36;107563;1254;107248;-65
2023/10/11 07:32:27;;;;;;;20.90;10.40;;;;;;;6.53;66.17;102373.42;107575;1251;99176;-64
2023/10/11 07:34:56;;;;;;;27.50;11.80;;;;;;;6.68;65.99;102369.73;107627;1251;99796;-65
2023/10/11 07:37:26;;;;;;;23.60;10.20;;;;;;;6.86;65.56;102369.96;107628;1251;112396;-65
2023/10/11 07:40:00;;;;;;;22.80;9.90;;;;;;;7.02;65.05;102367.23;107633;1251;110928;-64
2023/10/11 07:42:36;;;;;;;20.30;10.00;;;;;;;7.24;64.65;102360.48;107647;1251;108168;-64
2023/10/11 07:45:12;;;;;;;24.50;9.70;;;;;;;7.42;64.23;102357.42;107605;1251;99182;-64
2023/10/11 07:47:51;;;;;;;20.60;10.00;;;;;;;7.62;63.67;102356.08;107491;1254;99110;-63
2023/10/11 07:50:22;;;;;;;22.40;10.50;;;;;;;7.80;63.43;102352.84;107611;1256;113820;-64
2023/10/11 07:52:51;;;;;;;22.90;10.00;;;;;;;7.98;63.16;102351.76;107639;1251;108948;-64
2023/10/11 07:55:20;;;;;;;22.60;9.70;;;;;;;8.18;63.01;102347.85;107552;1251;108823;-64
2023/10/11 07:57:49;;;;;;;18.00;9.20;;;;;;;8.38;62.22;102345.38;107680;1251;99183;-64
2023/10/11 08:00:18;;;;;;;23.50;9.60;;;;;;;8.58;62.30;102334.33;107559;1251;99092;-64
2023/10/11 08:03:02;;;;;;;17.90;8.70;;;;;;;8.77;61.85;102332.54;107654;1251;112385;-64
2023/10/11 08:05:45;;;;;;;16.50;8.20;;;;;;;8.99;61.15;102333.42;107654;1251;109034;-64
2023/10/11 08:08:14;;;;;;;18.00;8.40;;;;;;;9.23;60.92;102330.45;107554;1251;109012;-64
2023/10/11 08:10:44;;;;;;;15.60;8.30;;;;;;;9.46;60.41;102325.40;107603;1251;99310;-64
2023/10/11 08:13:26;;;;;;;18.10;8.10;;;;;;;9.72;59.79;102324.92;107580;1254;99074;-65
2023/10/11 08:15:58;;;;;;;16.60;7.50;;;;;;;10.02;59.04;102327.23;107690;1252;112296;-64
2023/10/11 08:18:27;;;;;;;18.40;7.40;;;;;;;10.28;58.07;102325.09;107615;1253;108154;-64
2023/10/11 08:20:57;;;;;;;14.80;5.40;;;;;;;10.54;55.40;102322.23;107615;1254;105847;-64
2023/10/11 08:23:29;;;;;;;9.20;5.10;;;;;;;10.83;52.66;102319.33;107591;1253;99224;-65
2023/10/11 08:25:59;;;;;;;8.50;4.40;;;;;;;11.15;47.69;102323.89;107601;1252;99717;-66
2023/10/11 08:28:34;;;;;;;11.40;4.30;;;;;;;11.45;45.32;102322.08;107536;1253;113541;-65
2023/10/11 08:31:04;;;;;;;20.00;4.20;;;;;;;11.74;44.24;102319.41;107636;1252;108919;-64
2023/10/11 08:33:32;;;;;;;9.10;4.20;;;;;;;11.99;44.03;102324.51;107551;1254;107266;-63
2023/10/11 08:36:04;;;;;;;8.90;4.10;;;;;;;12.28;41.91;102323.22;107532;1254;99277;-63
2023/10/11 08:38:35;;;;;;;11.20;4.70;;;;;;;12.57;42.07;102323.86;107640;1254;99838;-65
2023/10/11 08:41:07;;;;;;;14.40;5.00;;;;;;;12.83;41.27;102320.73;107596;1253;112021;-64
2023/10/11 08:43:38;;;;;;;;;;;;;;;13.10;40.39;102314.80;107608;1253;108885;-64
2023/10/11 08:46:09;;;;;;;15.60;4.60;;;;;;;13.35;40.23;102306.03;107587;1251;107149;-64
2023/10/11 08:48:38;;;;;;;9.70;4.70;;;;;;;13.66;40.01;102307.55;107555;1253;99263;-64
2023/10/11 08:51:11;;;;;;;8.60;4.00;;;;;;;13.98;39.64;102303.78;107611;1252;99064;-64
2023/10/11 08:53:47;;;;;;;12.70;4.20;;;;;;;14.30;38.30;102307.79;107611;1253;113323;-64
2023/10/11 08:56:15;;;;;;;13.20;4.70;;;;;;;14.58;38.05;102303.16;107646;1251;109682;-64
2023/10/11 08:58:51;;;;;;;12.60;4.00;;;;;;;14.87;37.19;102306.95;107605;1254;108689;-64
2023/10/11 09:01:24;;;;;;;24.30;4.40;;;;;;;15.27;36.87;102303.44;107512;1251;99272;-63
2023/10/11 09:04:15;;;;;;;13.00;4.20;;;;;;;15.78;35.78;102308.58;107598;1251;99086;-63
2023/10/11 09:06:45;;;;;;;11.40;4.00;;;;;;;16.52;34.72;102310.46;107627;1251;111711;-64
2023/10/11 09:09:40;;;;;;;10.10;3.60;;;;;;;17.36;34.46;102308.98;107621;1251;109700;-64
2023/10/11 09:12:24;;;;;;;;;;;;;;;18.32;34.53;102301.44;107600;1251;108585;-63
2023/10/11 09:15:03;;;;;;;10.60;3.90;;;;;;;19.13;33.20;102298.00;107614;1256;99269;-64
2023/10/11 09:17:39;;;;;;;10.60;4.00;;;;;;;19.86;32.35;102294.55;107632;1251;99185;-64
2023/10/11 09:20:25;;;;;;;16.10;4.80;;;;;;;20.51;32.32;102292.67;107633;1251;112762;-63
2023/10/11 09:23:00;;;;;;;8.40;4.40;;;;;;;21.20;30.80;102291.21;107590;1251;109180;-64
2023/10/11 09:25:33;;;;;;;11.30;4.30;;;;;;;21.84;30.25;102286.38;107588;1253;107626;-64
2023/10/11 09:28:04;;;;;;;8.80;3.80;;;;;;;22.34;29.11;102283.22;107581;1251;99295;-64
2023/10/11 09:30:39;;;;;;;6.10;3.50;;;;;;;22.76;28.34;102276.83;107668;1251;99048;-64
2023/10/11 09:33:19;;;;;;;6.90;3.60;;;;;;;23.22;27.30;102269.94;107574;1252;113487;-64
2023/10/11 09:35:50;;;;;;;9.80;4.00;;;;;;;23.48;26.37;102263.89;107598;1253;109544;-64
2023/10/11 09:38:19;;;;;;;7.80;3.50;;;;;;;23.73;26.43;102261.30;107584;1254;108699;-63
2023/10/11 09:40:48;;;;;;;9.40;4.10;;;;;;;24.02;25.85;102255.94;107557;1251;99275;-64
2023/10/11 09:43:19;;;;;;;7.50;3.40;;;;;;;24.37;25.63;102253.77;107592;1251;99057;-63
2023/10/11 09:45:53;;;;;;;9.70;3.90;;;;;;;24.71;25.61;102252.62;107604;1251;114000;-63
2023/10/11 09:48:23;;;;;;;11.50;3.50;;;;;;;25.16;25.22;102242.66;107601;1251;109885;-63
2023/10/11 09:50:57;;;;;;;9.70;4.10;;;;;;;25.45;24.15;102232.80;107589;1255;108623;-63
2023/10/11 09:53:26;;;;;;;10.50;4.10;;;;;;;25.80;24.20;102232.66;107676;1254;99179;-63
2023/10/11 09:56:15;;;;;;;12.20;3.60;;;;;;;26.18;23.53;102222.81;107584;1251;99057;-64
2023/10/11 09:59:13;;;;;;;6.80;3.70;;;;;;;26.57;23.49;102223.23;107578;1256;112553;-64
2023/10/11 10:01:51;;;;;;;6.30;3.80;;;;;;;26.90;23.39;102212.34;107537;1254;109389;-64
2023/10/11 10:04:51;;;;;;;7.70;3.20;;;;;;;27.34;22.15;102208.91;107590;1254;108589;-64
2023/10/11 10:07:25;;;;;;;11.90;4.80;;;;;;;27.43;21.70;102204.41;107607;1255;99177;-64
2023/10/11 10:09:59;;;;;;;8.90;4.10;;;;;;;27.59;21.74;102201.41;107315;1253;480823;-64
2023/10/11 10:12:45;;;;;;;10.90;3.70;;;;;;;27.73;21.49;102190.12;107591;1255;113510;-65
2023/10/11 10:15:20;;;;;;;15.10;3.30;;;;;;;27.56;21.60;102188.62;107583;1252;109989;-64
2023/10/11 10:18:01;;;;;;;9.80;3.30;;;;;;;27.07;21.38;102185.80;107623;1254;107426;-64
2023/10/11 10:23:29;;;;;;;10.10;3.30;;;;;;;26.72;21.58;102178.59;107420;1254;99192;-64
2023/10/11 10:26:07;;;;;;;7.90;2.90;;;;;;;27.01;21.61;102176.80;107582;1254;112047;-64
2023/10/11 10:28:36;;;;;;;7.80;3.10;;;;;;;27.53;21.47;102172.65;107542;1254;109787;-63
2023/10/11 10:31:10;;;;;;;5.80;3.20;;;;;;;27.86;20.81;102168.89;107537;1253;108048;-64
2023/10/11 10:33:43;;;;;;;10.40;3.50;;;;;;;28.28;20.71;102163.11;107551;1256;99179;-64
2023/10/11 10:36:21;;;;;;;5.60;3.70;;;;;;;28.57;20.29;102153.19;107605;1253;99195;-65
2023/10/11 10:39:01;;;;;;;8.40;3.70;;;;;;;28.91;20.54;102154.77;107591;1254;113626;-64
2023/10/11 10:41:31;;;;;;;9.90;2.90;;;;;;;29.25;19.66;102141.92;107601;1256;109980;-64
2023/10/11 10:44:14;;;;;;;10.30;3.40;;;;;;;29.31;18.72;102145.69;107514;1256;108398;-64
2023/10/11 10:46:49;;;;;;;6.30;3.00;;;;;;;29.28;18.50;102141.14;107580;1254;99288;-64
2023/10/11 10:49:19;;;;;;;;;;;;;;;29.37;19.24;102133.17;107570;1254;99105;-65
2023/10/11 10:51:48;;;;;;;11.00;2.70;;;;;;;29.53;18.75;102128.06;107543;1254;114124;-64
2023/10/11 10:54:23;;;;;;;5.30;2.80;;;;;;;29.62;18.53;102133.94;107480;1254;109655;-64
2023/10/11 10:56:53;;;;;;;5.70;2.80;;;;;;;29.63;18.61;102126.05;107588;1253;107446;-64
2023/10/11 10:59:25;;;;;;;6.70;3.00;;;;;;;29.48;18.89;102124.04;107605;1252;99096;-63
2023/10/11 11:01:53;;;;;;;7.00;2.50;;;;;;;29.54;18.62;102122.33;107554;1254;99213;-64
2023/10/11 11:04:28;;;;;;;7.60;2.70;;;;;;;29.68;18.80;102121.15;107630;1256;113515;-64
2023/10/11 11:06:58;;;;;;;7.20;2.30;;;;;;;29.85;18.20;102115.59;107631;1254;108976;-64
2023/10/11 11:09:27;;;;;;;6.70;2.10;;;;;;;29.74;18.28;102115.23;107583;1251;108626;-64
2023/10/11 11:12:16;;;;;;;8.90;2.60;;;;;;;29.63;18.73;102117.71;107566;1254;99179;-63
2023/10/11 11:14:54;;;;;;;6.60;2.40;;;;;;;29.55;18.59;102112.17;107589;1251;99247;-64
2023/10/11 11:17:24;;;;;;;9.10;2.20;;;;;;;29.15;18.62;102106.81;107665;1251;113849;-64
2023/10/11 11:20:14;;;;;;;7.00;2.40;;;;;;;28.77;18.47;102110.33;107635;1255;110036;-64
2023/10/11 11:22:45;;;;;;;5.00;2.10;;;;;;;28.30;18.68;102107.33;107594;1252;107899;-64
2023/10/11 11:25:27;;;;;;;5.40;2.70;;;;;;;28.04;19.14;102103.26;107653;1251;99169;-65
2023/10/11 11:30:51;;;;;;;6.80;2.90;;;;;;;27.74;19.38;102100.96;107581;1255;113298;-63
2023/10/11 11:36:40;;;;;;;11.40;2.10;;;;;;;27.23;19.92;102090.73;107435;1253;108177;-64
2023/10/11 11:39:27;;;;;;;6.10;2.80;;;;;;;27.06;20.14;102094.71;107610;1253;99077;-64
2023/10/11 11:41:59;;;;;;;11.10;2.80;;;;;;;26.90;20.01;102088.70;107561;1252;99074;-65
2023/10/11 11:44:27;;;;;;;4.70;2.70;;;;;;;26.74;20.02;102086.77;107586;1251;113841;-62
2023/10/11 11:46:56;;;;;;;11.20;3.50;;;;;;;26.54;20.31;102082.73;107567;1251;109206;-64
2023/10/11 11:49:27;;;;;;;4.80;2.40;;;;;;;26.37;20.35;102086.33;107600;1252;108686;-65
2023/10/11 11:51:56;;;;;;;8.70;2.80;;;;;;;26.18;20.60;102083.39;107632;1251;99210;-64
2023/10/11 11:54:28;;;;;;;16.00;3.30;;;;;;;26.03;20.34;102079.66;107604;1252;99269;-64
2023/10/11 11:56:57;;;;;;;6.30;2.70;;;;;;;25.79;20.65;102081.48;107593;1251;112863;-64
2023/10/11 11:59:29;;;;;;;4.80;2.70;;;;;;;25.68;20.98;102083.19;107599;1251;110253;-63
2023/10/11 12:02:01;;;;;;;7.60;3.00;;;;;;;25.68;21.17;102076.86;107591;1251;108546;-64
2023/10/11 12:04:30;;;;;;;8.30;2.70;;;;;;;25.74;21.02;102077.48;107554;1251;99196;-64
2023/10/11 12:07:00;;;;;;;8.70;2.30;;;;;;;25.83;21.11;102068.78;107610;1252;99246;-64
2023/10/11 12:09:34;;;;;;;10.30;2.50;;;;;;;26.06;21.09;102069.58;107599;1253;113675;-64
2023/10/11 12:12:16;;;;;;;8.00;2.50;;;;;;;26.24;20.63;102059.44;107569;1254;109818;-64
2023/10/11 12:14:44;;;;;;;5.90;2.60;;;;;;;26.39;20.68;102050.64;107612;1255;108758;-61
2023/10/11 12:17:14;;;;;;;13.50;2.20;;;;;;;26.55;20.47;102043.24;107593;1254;99241;-61
2023/10/11 12:19:45;;;;;;;4.60;2.50;;;;;;;26.61;20.41;102034.51;107644;1251;99262;-63